createdAt,value
2023-01-03T00:00:12.178Z,7.18
2023-01-03T00:02:44.321Z,5.75
2023-01-03T00:05:16.376Z,5.88
2023-01-03T00:07:48.515Z,6.63
2023-01-03T00:10:20.667Z,7.28
2023-01-03T00:12:52.654Z,6.30
2023-01-03T00:15:24.625Z,6.72
2023-01-03T00:17:56.799Z,6.65
2023-01-03T00:20:28.886Z,6.85
2023-01-03T00:23:02.338Z,7.60
2023-01-03T00:25:34.528Z,7.13
2023-01-03T00:28:06.823Z,6.32
2023-01-03T00:30:38.827Z,6.95
2023-01-03T00:33:10.909Z,6.32
2023-01-03T00:35:42.980Z,7.43
2023-01-03T00:38:14.983Z,7.32
2023-01-03T00:40:47.103Z,6.82
2023-01-03T00:43:31.095Z,6.97
2023-01-03T00:46:04.289Z,7.07
2023-01-03T00:48:37.331Z,6.55
2023-01-03T00:51:16.476Z,7.55
2023-01-03T00:53:50.922Z,7.75
2023-01-03T00:56:27.018Z,7.00
2023-01-03T00:58:59.325Z,6.97
2023-01-03T01:01:46.816Z,6.90
2023-01-03T01:04:39.235Z,8.68
2023-01-03T01:07:11.344Z,7.45
2023-01-03T01:09:43.295Z,8.05
2023-01-03T01:12:15.292Z,8.43
2023-01-03T01:14:47.255Z,8.18
2023-01-03T01:17:22.559Z,7.30
2023-01-03T01:19:55.110Z,7.70
2023-01-03T01:22:27.089Z,8.65
2023-01-03T01:24:59.082Z,7.53
2023-01-03T01:27:31.797Z,8.18
2023-01-03T01:30:04.317Z,8.02
2023-01-03T01:32:36.381Z,7.85
2023-01-03T01:35:09.080Z,8.23
2023-01-03T01:37:41.247Z,8.57
2023-01-03T01:40:13.304Z,8.05
2023-01-03T01:43:03.706Z,7.90
2023-01-03T01:45:36.073Z,8.38
2023-01-03T01:48:14.495Z,7.28
2023-01-03T01:50:55.399Z,7.85
2023-01-03T01:53:34.890Z,7.63
2023-01-03T01:56:23.924Z,8.02
2023-01-03T01:58:56.536Z,7.85
2023-01-03T02:01:29.686Z,8.65
2023-01-03T02:04:30.570Z,7.68
2023-01-03T02:07:03.796Z,8.82
2023-01-03T02:09:35.761Z,8.18
2023-01-03T02:12:59.530Z,8.02
2023-01-03T02:16:13.199Z,8.23
2023-01-03T02:19:11.996Z,8.25
2023-01-03T02:22:14.269Z,8.00
2023-01-03T02:25:13.436Z,8.23
2023-01-03T02:28:25.509Z,7.70
2023-01-03T02:31:13.152Z,8.25
2023-01-03T02:34:04.104Z,8.68
2023-01-03T02:37:25.270Z,8.18
2023-01-03T02:40:20.924Z,10.23
2023-01-03T02:43:21.430Z,7.80
2023-01-03T02:46:09.346Z,8.77
2023-01-03T02:48:48.377Z,7.55
2023-01-03T02:51:55.248Z,8.55
2023-01-03T02:54:40.226Z,10.38
2023-01-03T02:57:20.570Z,10.88
2023-01-03T03:02:33.267Z,9.60
2023-01-03T03:05:15.481Z,8.60
2023-01-03T03:07:47.498Z,10.45
2023-01-03T03:10:38.863Z,9.52
2023-01-03T03:13:25.881Z,10.60
2023-01-03T03:16:44.075Z,10.30
2023-01-03T03:19:43.099Z,11.10
2023-01-03T03:22:37.675Z,10.73
2023-01-03T03:25:45.373Z,10.27
2023-01-03T03:28:36.728Z,10.15
2023-01-03T03:31:24.017Z,10.57
2023-01-03T03:34:10.880Z,10.98
2023-01-03T03:36:58.054Z,12.68
2023-01-03T03:39:51.493Z,9.70
2023-01-03T03:42:59.629Z,10.27
2023-01-03T03:45:43.034Z,9.95
2023-01-03T03:49:26.942Z,9.85
2023-01-03T03:52:02.234Z,9.57
2023-01-03T03:54:40.303Z,10.55
2023-01-03T03:57:29.708Z,10.10
2023-01-03T04:00:14.181Z,10.00
2023-01-03T04:02:47.967Z,9.20
2023-01-03T04:05:23.860Z,9.35
2023-01-03T04:07:55.889Z,9.45
2023-01-03T04:10:32.590Z,9.55
2023-01-03T04:13:07.766Z,10.70
2023-01-03T04:15:40.419Z,10.63
2023-01-03T04:18:12.377Z,9.98
2023-01-03T04:20:44.849Z,11.07
2023-01-03T04:23:16.806Z,10.85
2023-01-03T04:25:49.324Z,10.27
2023-01-03T04:28:21.465Z,10.15
2023-01-03T04:30:53.477Z,9.82
2023-01-03T04:33:25.897Z,9.55
2023-01-03T04:35:57.850Z,10.23
2023-01-03T04:38:29.821Z,9.35
2023-01-03T04:41:09.011Z,10.90
2023-01-03T04:43:59.394Z,11.93
2023-01-03T04:49:09.383Z,9.45
2023-01-03T04:51:41.654Z,9.85
2023-01-03T04:54:13.571Z,9.80
2023-01-03T04:56:45.914Z,10.23
2023-01-03T04:59:17.848Z,9.07
2023-01-03T05:01:52.621Z,9.93
2023-01-03T05:04:24.881Z,9.90
2023-01-03T05:06:56.985Z,9.13
2023-01-03T05:09:29.417Z,10.05
2023-01-03T05:12:01.390Z,9.88
2023-01-03T05:14:33.361Z,9.90
2023-01-03T05:17:05.434Z,10.55
2023-01-03T05:19:57.795Z,10.20
2023-01-03T05:22:48.151Z,10.38
2023-01-03T05:30:49.614Z,10.13
2023-01-03T05:33:21.554Z,11.15
2023-01-03T05:35:53.653Z,11.05
2023-01-03T05:38:26.111Z,10.10
2023-01-03T05:40:58.190Z,9.75
2023-01-03T05:43:30.267Z,11.13
2023-01-03T05:46:03.556Z,11.32
2023-01-03T05:48:36.180Z,10.93
2023-01-03T05:51:08.152Z,11.70
2023-01-03T05:53:40.507Z,11.50
2023-01-03T05:56:12.543Z,11.88
2023-01-03T05:58:44.902Z,12.02
2023-01-03T06:01:17.753Z,11.45
2023-01-03T06:03:49.809Z,12.23
2023-01-03T06:06:22.098Z,12.02
2023-01-03T06:08:54.889Z,12.95
2023-01-03T06:11:27.127Z,12.07
2023-01-03T06:13:59.152Z,13.30
2023-01-03T06:16:50.578Z,14.07
2023-01-03T06:19:22.637Z,14.18
2023-01-03T06:21:54.622Z,13.98
2023-01-03T06:24:26.657Z,14.73
2023-01-03T06:26:58.593Z,14.65
2023-01-03T06:29:31.050Z,15.23
2023-01-03T06:32:08.873Z,15.00
2023-01-03T06:34:41.653Z,16.10
2023-01-03T06:37:13.661Z,14.43
2023-01-03T06:39:45.905Z,15.50
2023-01-03T06:42:36.607Z,15.45
2023-01-03T06:45:29.371Z,15.50
2023-01-03T06:48:28.848Z,16.10
2023-01-03T06:51:19.178Z,16.93
2023-01-03T06:56:23.293Z,15.93
2023-01-03T06:58:55.312Z,16.13
2023-01-03T07:01:27.702Z,17.17
2023-01-03T07:03:59.775Z,16.27
2023-01-03T07:06:31.833Z,16.63
2023-01-03T07:09:04.058Z,16.48
2023-01-03T07:11:37.211Z,16.58
2023-01-03T07:14:11.583Z,16.33
2023-01-03T07:16:46.619Z,17.23
2023-01-03T07:19:20.296Z,17.85
2023-01-03T07:21:52.369Z,17.58
2023-01-03T07:24:24.526Z,16.83
2023-01-03T07:26:56.516Z,16.92
2023-01-03T07:29:28.971Z,18.10
2023-01-03T07:32:01.073Z,19.85
2023-01-03T07:34:33.579Z,17.75
2023-01-03T07:37:05.573Z,17.88
2023-01-03T07:39:38.115Z,19.27
2023-01-03T07:42:32.964Z,19.48
2023-01-03T07:45:05.797Z,20.40
2023-01-03T07:47:38.098Z,19.00
2023-01-03T07:50:10.189Z,20.23
2023-01-03T07:52:42.327Z,19.08
2023-01-03T07:55:14.329Z,20.27
2023-01-03T07:57:46.840Z,22.33
2023-01-03T08:00:19.000Z,21.02
2023-01-03T08:02:56.341Z,21.33
2023-01-03T08:05:28.403Z,21.20
2023-01-03T08:08:00.494Z,18.20
2023-01-03T08:10:51.397Z,21.55
2023-01-03T08:13:25.256Z,19.85
2023-01-03T08:15:57.462Z,20.00
2023-01-03T08:18:29.588Z,19.58
2023-01-03T08:21:01.687Z,20.60
2023-01-03T08:23:34.460Z,20.42
2023-01-03T08:26:16.648Z,22.08
2023-01-03T08:28:48.678Z,20.92
2023-01-03T08:31:23.005Z,21.23
2023-01-03T08:34:10.315Z,21.67
2023-01-03T08:36:55.626Z,22.77
2023-01-03T08:39:34.882Z,20.08
2023-01-03T08:42:08.874Z,21.48
2023-01-03T08:44:44.944Z,22.75
2023-01-03T08:47:17.850Z,22.92
2023-01-03T08:49:50.045Z,22.45
2023-01-03T08:52:22.008Z,21.27
2023-01-03T08:54:54.011Z,20.23
2023-01-03T08:57:26.039Z,22.52
2023-01-03T08:59:58.146Z,22.58
2023-01-03T09:02:30.409Z,22.33
2023-01-03T09:05:02.716Z,23.75
2023-01-03T09:07:34.715Z,23.30
2023-01-03T09:10:07.319Z,21.65
2023-01-03T09:12:39.321Z,21.42
2023-01-03T09:15:12.098Z,22.08
2023-01-03T09:17:45.252Z,20.13
2023-01-03T09:20:18.874Z,20.20
2023-01-03T09:22:51.339Z,21.40
2023-01-03T09:25:23.536Z,21.52
2023-01-03T09:27:55.641Z,21.52
2023-01-03T09:30:27.634Z,20.73
2023-01-03T09:32:59.611Z,21.23
2023-01-03T09:35:32.817Z,21.13
2023-01-03T09:38:05.001Z,22.58
2023-01-03T09:40:44.324Z,21.90
2023-01-03T09:43:25.461Z,21.27
2023-01-03T09:46:00.022Z,22.08
2023-01-03T09:48:39.049Z,21.00
2023-01-03T09:51:44.156Z,30.95
2023-01-03T09:55:04.177Z,24.63
2023-01-03T09:57:56.011Z,21.70
2023-01-03T10:00:59.056Z,22.77
2023-01-03T10:04:11.787Z,23.70
2023-01-03T10:07:08.591Z,24.08
2023-01-03T10:09:54.465Z,23.17
2023-01-03T10:12:48.040Z,26.50
2023-01-03T10:15:55.094Z,24.55
2023-01-03T10:18:59.617Z,23.15
2023-01-03T10:22:05.175Z,22.90
2023-01-03T10:24:46.475Z,22.27
2023-01-03T10:27:25.365Z,23.33
2023-01-03T10:30:04.523Z,24.23
2023-01-03T10:33:14.098Z,22.98
2023-01-03T10:35:46.517Z,24.20
2023-01-03T10:38:20.540Z,25.05
2023-01-03T10:41:02.585Z,23.25
2023-01-03T10:43:45.767Z,22.98
2023-01-03T10:46:22.158Z,23.05
2023-01-03T10:52:11.022Z,23.15
2023-01-03T10:54:43.008Z,24.20
2023-01-03T10:57:48.428Z,22.65
2023-01-03T11:00:27.004Z,24.00
2023-01-03T11:03:16.663Z,23.55
2023-01-03T11:06:01.307Z,23.38
2023-01-03T11:08:47.374Z,23.95
2023-01-03T11:11:40.764Z,24.08
2023-01-03T11:14:26.196Z,23.42
2023-01-03T11:17:06.174Z,23.30
2023-01-03T11:19:38.279Z,22.25
2023-01-03T11:22:37.660Z,23.20
2023-01-03T11:25:24.672Z,23.98
2023-01-03T11:28:35.581Z,23.08
2023-01-03T11:31:20.383Z,25.52
2023-01-03T11:34:12.022Z,24.63
2023-01-03T11:36:59.607Z,25.42
2023-01-03T11:40:28.831Z,24.80
2023-01-03T11:43:25.765Z,25.70
2023-01-03T11:46:40.690Z,25.85
2023-01-03T11:49:47.860Z,25.13
2023-01-03T11:52:34.097Z,25.25
2023-01-03T11:55:44.740Z,24.17
2023-01-03T11:58:40.479Z,24.33
2023-01-03T12:01:18.168Z,25.23
2023-01-03T12:04:15.576Z,23.50
2023-01-03T12:07:47.149Z,25.00
2023-01-03T12:10:24.995Z,26.00
2023-01-03T12:13:14.539Z,24.80
2023-01-03T12:15:49.861Z,24.88
2023-01-03T12:18:39.979Z,25.70
2023-01-03T12:21:34.375Z,27.88
2023-01-03T12:24:29.908Z,26.73
2023-01-03T12:27:29.273Z,24.80
2023-01-03T12:30:29.556Z,23.92
2023-01-03T12:35:58.118Z,23.02
2023-01-03T12:39:13.975Z,24.13
2023-01-03T12:42:20.549Z,23.58
2023-01-03T12:45:08.079Z,24.80
2023-01-03T12:47:48.655Z,25.30
2023-01-03T12:50:42.456Z,23.55
2023-01-03T12:53:50.780Z,22.88
2023-01-03T12:56:58.315Z,27.58
2023-01-03T13:00:10.898Z,25.88
2023-01-03T13:02:52.915Z,24.80
2023-01-03T13:05:56.981Z,22.92
2023-01-03T13:08:55.483Z,26.30
2023-01-03T13:11:37.606Z,25.35
2023-01-03T13:14:23.745Z,25.55
2023-01-03T13:16:56.938Z,23.58
2023-01-03T13:19:28.838Z,22.30
2023-01-03T13:22:47.078Z,24.38
2023-01-03T13:25:31.171Z,25.45
2023-01-03T13:28:20.349Z,26.98
2023-01-03T13:31:16.844Z,24.60
2023-01-03T13:33:55.686Z,23.27
2023-01-03T13:37:18.368Z,22.65
2023-01-03T13:39:50.383Z,23.52
2023-01-03T13:42:38.340Z,24.55
2023-01-03T13:45:17.802Z,25.23
2023-01-03T13:47:57.232Z,22.50
2023-01-03T13:50:35.483Z,23.10
2023-01-03T13:53:10.475Z,24.60
2023-01-03T13:55:54.495Z,24.35
2023-01-03T13:58:43.723Z,24.52
2023-01-03T14:01:40.253Z,25.33
2023-01-03T14:04:40.384Z,26.75
2023-01-03T14:08:01.479Z,23.27
2023-01-03T14:11:08.746Z,25.58
2023-01-03T14:13:47.434Z,25.73
2023-01-03T14:16:54.106Z,24.77
2023-01-03T14:19:34.023Z,23.83
2023-01-03T14:22:31.467Z,25.45
2023-01-03T14:25:05.235Z,25.38
2023-01-03T14:27:40.652Z,23.55
2023-01-03T14:30:24.673Z,25.75
2023-01-03T14:32:57.505Z,24.95
2023-01-03T14:35:38.068Z,25.58
2023-01-03T14:38:39.928Z,26.45
2023-01-03T14:41:27.010Z,26.55
2023-01-03T14:44:04.037Z,26.30
2023-01-03T14:46:37.471Z,24.90
2023-01-03T14:49:50.241Z,26.25
2023-01-03T14:52:30.105Z,29.33
2023-01-03T14:55:16.611Z,27.88
2023-01-03T14:57:50.528Z,27.38
2023-01-03T15:00:33.036Z,27.30
2023-01-03T15:03:11.054Z,26.83
2023-01-03T15:05:43.553Z,27.67
2023-01-03T15:08:15.527Z,24.95
2023-01-03T15:11:00.485Z,26.67
2023-01-03T15:13:56.693Z,27.73
2023-01-03T15:16:42.340Z,27.38
2023-01-03T15:19:26.682Z,27.05
2023-01-03T15:22:13.083Z,27.55
2023-01-03T15:24:48.178Z,26.92
2023-01-03T15:27:41.104Z,28.17
2023-01-03T15:30:22.994Z,27.30
2023-01-03T15:33:05.140Z,26.40
2023-01-03T15:35:42.937Z,27.48
2023-01-03T15:38:23.187Z,26.98
2023-01-03T15:43:39.164Z,26.83
2023-01-03T15:46:20.320Z,25.35
2023-01-03T15:48:56.027Z,26.00
2023-01-03T15:51:28.101Z,26.70
2023-01-03T15:54:00.104Z,27.65
2023-01-03T15:56:35.791Z,29.13
2023-01-03T15:59:09.585Z,26.30
2023-01-03T16:01:42.348Z,27.13
2023-01-03T16:04:14.601Z,27.83
2023-01-03T16:06:47.150Z,25.90
2023-01-03T16:09:20.611Z,26.58
2023-01-03T16:11:57.593Z,25.80
2023-01-03T16:14:36.628Z,23.35
2023-01-03T16:17:13.685Z,24.73
2023-01-03T16:19:46.051Z,24.98
2023-01-03T16:25:06.232Z,22.77
2023-01-03T16:27:38.248Z,23.50
2023-01-03T16:30:13.055Z,23.27
2023-01-03T16:32:45.301Z,23.30
2023-01-03T16:35:19.591Z,22.85
2023-01-03T16:37:51.631Z,21.08
2023-01-03T16:40:23.704Z,20.75
2023-01-03T16:42:56.213Z,19.70
2023-01-03T16:45:28.426Z,21.42
2023-01-03T16:48:00.622Z,18.27
2023-01-03T16:50:39.024Z,18.33
2023-01-03T16:53:30.424Z,17.20
2023-01-03T16:56:03.963Z,16.98
2023-01-03T16:58:35.981Z,17.77
2023-01-03T17:01:08.496Z,18.38
2023-01-03T17:03:42.290Z,17.35
2023-01-03T17:06:38.403Z,16.48
2023-01-03T17:09:29.099Z,16.55
2023-01-03T17:14:36.990Z,15.30
2023-01-03T17:17:22.290Z,16.92
2023-01-03T17:20:09.739Z,17.85
2023-01-03T17:22:50.967Z,17.77
2023-01-03T17:25:23.797Z,17.58
2023-01-03T17:28:10.811Z,17.83
2023-01-03T17:30:44.362Z,19.17
2023-01-03T17:33:16.553Z,17.95
2023-01-03T17:35:48.678Z,19.10
2023-01-03T17:38:26.175Z,18.77
2023-01-03T17:40:59.147Z,20.73
2023-01-03T17:43:32.475Z,20.27
2023-01-03T17:46:44.580Z,20.92
2023-01-03T17:49:27.436Z,20.42
2023-01-03T17:52:07.037Z,20.45
2023-01-03T17:54:41.573Z,21.35
2023-01-03T17:57:13.938Z,20.17
2023-01-03T17:59:45.920Z,21.45
2023-01-03T18:02:22.553Z,20.65
2023-01-03T18:07:47.873Z,22.10
2023-01-03T18:10:30.405Z,20.85
2023-01-03T18:13:02.575Z,21.92
2023-01-03T18:15:34.597Z,20.55
2023-01-03T18:18:14.258Z,22.30
2023-01-03T18:20:46.593Z,21.00
2023-01-03T18:23:35.744Z,21.90
2023-01-03T18:26:14.334Z,22.50
2023-01-03T18:28:46.386Z,21.35
2023-01-03T18:31:19.946Z,23.63
2023-01-03T18:33:52.091Z,23.95
2023-01-03T18:36:28.627Z,23.40
2023-01-03T18:39:08.284Z,22.08
2023-01-03T18:41:41.352Z,24.00
2023-01-03T18:44:22.332Z,23.10
2023-01-03T18:46:54.461Z,23.55
2023-01-03T18:49:26.470Z,22.77
2023-01-03T18:51:58.475Z,23.48
2023-01-03T18:54:30.694Z,23.92
2023-01-03T18:57:02.680Z,22.88
2023-01-03T18:59:35.296Z,24.25
2023-01-03T19:02:16.166Z,24.15
2023-01-03T19:04:51.650Z,22.88
2023-01-03T19:07:34.374Z,25.27
2023-01-03T19:10:25.497Z,24.60
2023-01-03T19:12:59.124Z,23.35
2023-01-03T19:15:31.238Z,24.77
2023-01-03T19:18:04.193Z,24.90
2023-01-03T19:20:36.551Z,24.35
2023-01-03T19:23:08.824Z,24.13
2023-01-03T19:25:41.485Z,23.33
2023-01-03T19:28:13.679Z,22.23
2023-01-03T19:30:46.749Z,21.80
2023-01-03T19:33:19.609Z,21.75
2023-01-03T19:35:51.880Z,20.60
2023-01-03T19:38:23.980Z,20.70
2023-01-03T19:40:56.085Z,19.90
2023-01-03T19:43:28.717Z,17.77
2023-01-03T19:46:00.887Z,17.92
2023-01-03T19:48:33.016Z,17.63
2023-01-03T19:51:05.743Z,15.73
2023-01-03T19:53:38.967Z,16.00
2023-01-03T19:56:22.875Z,14.45
2023-01-03T19:59:00.947Z,14.85
2023-01-03T20:01:58.212Z,14.25
2023-01-03T20:04:33.550Z,13.95
2023-01-03T20:07:14.766Z,12.65
2023-01-03T20:09:46.764Z,12.55
2023-01-03T20:12:25.418Z,12.43
2023-01-03T20:15:06.558Z,10.70
2023-01-03T20:17:39.403Z,11.77
2023-01-03T20:20:13.847Z,11.32
2023-01-03T20:23:07.013Z,11.65
2023-01-03T20:25:39.418Z,10.82
2023-01-03T20:28:29.264Z,10.35
2023-01-03T20:31:04.982Z,9.90
2023-01-03T20:33:37.031Z,8.57
2023-01-03T20:36:23.103Z,8.45
2023-01-03T20:38:56.412Z,8.27
2023-01-03T20:41:37.578Z,8.68
2023-01-03T20:44:10.379Z,8.38
2023-01-03T20:46:42.578Z,7.47
2023-01-03T20:49:26.639Z,8.25
2023-01-03T20:52:03.176Z,7.57
2023-01-03T20:54:35.206Z,7.35
2023-01-03T20:57:18.806Z,7.43
2023-01-03T20:59:50.887Z,6.68
2023-01-03T21:02:29.241Z,6.68
2023-01-03T21:05:01.425Z,6.88
2023-01-03T21:07:51.812Z,5.47
2023-01-03T21:12:58.826Z,4.95
2023-01-03T21:15:31.013Z,5.20
2023-01-03T21:18:10.592Z,4.93
2023-01-03T21:20:43.298Z,5.75
2023-01-03T21:23:21.239Z,5.10
2023-01-03T21:25:55.492Z,5.00
2023-01-03T21:28:27.460Z,4.80
2023-01-03T21:31:04.970Z,4.50
2023-01-03T21:33:37.516Z,4.43
2023-01-03T21:36:19.241Z,3.97
2023-01-03T21:38:56.367Z,5.55
2023-01-03T21:41:34.674Z,5.07
2023-01-03T21:44:07.906Z,4.82
2023-01-03T21:46:43.416Z,5.38
2023-01-03T21:49:15.620Z,5.22
2023-01-03T21:51:47.613Z,4.15
2023-01-03T21:54:19.604Z,3.97
2023-01-03T21:56:51.561Z,3.90
2023-01-03T21:59:23.682Z,5.03
2023-01-03T22:02:14.080Z,3.30
2023-01-03T22:04:46.380Z,3.50
2023-01-03T22:07:19.898Z,3.80
2023-01-03T22:10:10.830Z,3.80
2023-01-03T22:13:05.074Z,4.13
2023-01-03T22:15:39.189Z,3.03
2023-01-03T22:18:13.261Z,3.40
2023-01-03T22:20:45.255Z,3.67
2023-01-03T22:23:19.197Z,3.00
2023-01-03T22:25:51.175Z,3.72
2023-01-03T22:28:25.222Z,3.90
2023-01-03T22:30:57.751Z,2.95
2023-01-03T22:33:30.031Z,4.40
2023-01-03T22:36:02.038Z,3.40
2023-01-03T22:38:34.844Z,4.03
2023-01-03T22:41:12.936Z,3.58
2023-01-03T22:43:45.880Z,3.15
2023-01-03T22:46:18.005Z,3.72
2023-01-03T22:48:50.165Z,3.65
2023-01-03T22:51:22.287Z,2.97
2023-01-03T22:53:54.563Z,3.90
2023-01-03T22:56:26.634Z,3.17
2023-01-03T22:58:58.753Z,3.30
2023-01-03T23:01:31.695Z,3.08
2023-01-03T23:04:06.814Z,3.00
2023-01-03T23:06:38.875Z,3.00
2023-01-03T23:09:12.165Z,2.80
2023-01-03T23:12:03.134Z,2.80
2023-01-03T23:14:35.343Z,3.70
2023-01-03T23:17:26.231Z,3.00
2023-01-03T23:19:58.308Z,3.28
2023-01-03T23:22:30.365Z,3.00
2023-01-03T23:25:02.347Z,3.72
2023-01-03T23:27:34.863Z,2.45
2023-01-03T23:30:07.799Z,3.28
2023-01-03T23:32:39.941Z,2.15
2023-01-03T23:35:12.103Z,2.72
2023-01-03T23:37:46.617Z,3.10
2023-01-03T23:40:18.593Z,2.55
2023-01-03T23:42:50.717Z,2.20
2023-01-03T23:45:22.688Z,2.53
2023-01-03T23:47:55.304Z,2.17
2023-01-03T23:50:27.549Z,2.47
2023-01-03T23:52:59.757Z,2.30
2023-01-03T23:55:31.841Z,2.53
2023-01-03T23:58:03.852Z,2.20
